createdAt,value
2023-02-15T00:02:00.827Z,4.83
2023-02-15T00:04:47.451Z,3.27
2023-02-15T00:07:19.879Z,4.50
2023-02-15T00:09:50.470Z,3.80
2023-02-15T00:12:17.623Z,3.57
2023-02-15T00:14:44.474Z,3.97
2023-02-15T00:17:11.128Z,3.67
2023-02-15T00:19:41.134Z,3.30
2023-02-15T00:22:08.336Z,3.63
2023-02-15T00:24:34.932Z,3.57
2023-02-15T00:27:01.487Z,3.87
2023-02-15T00:29:28.080Z,3.47
2023-02-15T00:31:54.674Z,3.57
2023-02-15T00:34:26.086Z,2.37
2023-02-15T00:36:52.884Z,3.23
2023-02-15T00:39:20.196Z,4.47
2023-02-15T00:41:47.836Z,3.33
2023-02-15T00:44:14.735Z,3.93
2023-02-15T00:46:41.488Z,4.60
2023-02-15T00:49:10.327Z,4.00
2023-02-15T00:51:36.928Z,4.27
2023-02-15T00:54:03.568Z,3.53
2023-02-15T00:56:30.235Z,5.37
2023-02-15T00:58:59.162Z,4.27
2023-02-15T01:01:26.911Z,4.97
2023-02-15T01:03:53.863Z,5.60
2023-02-15T01:06:20.475Z,6.30
2023-02-15T01:08:47.771Z,6.10
2023-02-15T01:11:25.651Z,5.73
2023-02-15T01:13:58.290Z,4.17
2023-02-15T01:16:31.202Z,4.03
2023-02-15T01:18:58.045Z,6.83
2023-02-15T01:21:26.772Z,6.50
2023-02-15T01:23:53.817Z,4.07
2023-02-15T01:26:26.318Z,3.03
2023-02-15T01:28:53.087Z,3.00
2023-02-15T01:31:21.991Z,5.17
2023-02-15T01:33:49.547Z,4.17
2023-02-15T01:36:18.332Z,4.17
2023-02-15T01:38:45.045Z,4.37
2023-02-15T01:41:30.617Z,3.93
2023-02-15T01:44:02.391Z,5.10
2023-02-15T01:46:42.612Z,3.23
2023-02-15T01:49:15.139Z,4.67
2023-02-15T01:51:44.465Z,3.60
2023-02-15T01:54:22.659Z,3.17
2023-02-15T01:56:49.647Z,4.57
2023-02-15T01:59:21.729Z,3.47
2023-02-15T02:01:49.612Z,3.57
2023-02-15T02:04:30.861Z,2.97
2023-02-15T02:06:58.612Z,3.37
2023-02-15T02:09:25.860Z,2.77
2023-02-15T02:12:02.951Z,3.17
2023-02-15T02:14:30.121Z,3.17
2023-02-15T02:17:18.449Z,3.37
2023-02-15T02:20:22.469Z,3.03
2023-02-15T02:23:33.087Z,2.67
2023-02-15T02:26:30.376Z,1.67
2023-02-15T02:29:38.974Z,2.30
2023-02-15T02:32:18.422Z,1.60
2023-02-15T02:34:54.100Z,2.50
2023-02-15T02:37:28.898Z,2.17
2023-02-15T02:40:17.087Z,2.07
2023-02-15T02:43:20.332Z,1.87
2023-02-15T02:46:10.472Z,2.60
2023-02-15T02:48:38.320Z,1.40
2023-02-15T02:51:04.864Z,1.77
2023-02-15T02:53:35.852Z,2.37
2023-02-15T02:56:29.228Z,2.17
2023-02-15T02:59:03.137Z,2.07
2023-02-15T03:01:34.451Z,1.90
2023-02-15T03:04:07.839Z,2.63
2023-02-15T03:06:48.265Z,3.10
2023-02-15T03:09:35.644Z,2.20
2023-02-15T03:12:04.887Z,1.83
2023-02-15T03:14:31.667Z,2.50
2023-02-15T03:17:00.825Z,2.03
2023-02-15T03:19:31.166Z,1.70
2023-02-15T03:22:10.436Z,2.40
2023-02-15T03:24:52.425Z,2.47
2023-02-15T03:27:30.307Z,2.60
2023-02-15T03:30:00.527Z,2.67
2023-02-15T03:32:30.612Z,2.87
2023-02-15T03:34:57.222Z,4.60
2023-02-15T03:37:35.804Z,4.53
2023-02-15T03:40:38.970Z,4.00
2023-02-15T03:43:43.052Z,3.57
2023-02-15T03:46:43.982Z,3.33
2023-02-15T03:49:17.216Z,3.50
2023-02-15T03:51:47.213Z,2.63
2023-02-15T03:54:45.912Z,3.53
2023-02-15T03:57:42.224Z,3.23
2023-02-15T04:00:44.700Z,4.43
2023-02-15T04:03:37.111Z,3.83
2023-02-15T04:06:04.453Z,3.57
2023-02-15T04:08:49.782Z,3.40
2023-02-15T04:11:16.389Z,3.77
2023-02-15T04:13:43.299Z,4.03
2023-02-15T04:16:10.110Z,4.03
2023-02-15T04:18:56.434Z,3.70
2023-02-15T04:21:43.180Z,3.50
2023-02-15T04:24:29.261Z,3.70
2023-02-15T04:26:59.445Z,3.73
2023-02-15T04:29:30.171Z,3.07
2023-02-15T04:31:59.135Z,3.77
2023-02-15T04:34:26.212Z,3.47
2023-02-15T04:36:52.837Z,2.17
2023-02-15T04:39:19.912Z,3.57
2023-02-15T04:41:47.165Z,2.83
2023-02-15T04:44:18.344Z,3.67
2023-02-15T04:46:44.895Z,3.00
2023-02-15T04:49:11.443Z,1.67
2023-02-15T04:51:45.511Z,2.70
2023-02-15T04:54:12.075Z,2.50
2023-02-15T04:56:40.041Z,2.87
2023-02-15T04:59:06.947Z,4.23
2023-02-15T05:01:41.111Z,3.53
2023-02-15T05:04:07.739Z,3.40
2023-02-15T05:06:34.584Z,1.77
2023-02-15T05:09:01.213Z,2.83
2023-02-15T05:11:28.288Z,3.97
2023-02-15T05:13:54.880Z,2.70
2023-02-15T05:16:21.491Z,2.30
2023-02-15T05:18:48.064Z,2.50
2023-02-15T05:21:14.858Z,1.77
2023-02-15T05:23:41.861Z,2.90
2023-02-15T05:26:32.383Z,1.87
2023-02-15T05:28:58.982Z,2.67
2023-02-15T05:31:25.749Z,2.73
2023-02-15T05:33:53.761Z,2.73
2023-02-15T05:36:20.299Z,3.53
2023-02-15T05:38:46.807Z,2.80
2023-02-15T05:41:13.390Z,3.50
2023-02-15T05:43:40.243Z,2.73
2023-02-15T05:46:07.835Z,2.77
2023-02-15T05:48:35.553Z,3.97
2023-02-15T05:51:12.232Z,2.37
2023-02-15T05:53:40.012Z,3.43
2023-02-15T05:56:10.256Z,3.20
2023-02-15T05:58:39.670Z,2.63
2023-02-15T06:01:14.546Z,3.23
2023-02-15T06:03:42.235Z,2.77
2023-02-15T06:06:09.689Z,2.57
2023-02-15T06:08:37.881Z,2.73
2023-02-15T06:11:05.448Z,2.60
2023-02-15T06:13:33.000Z,2.90
2023-02-15T06:15:59.822Z,2.50
2023-02-15T06:18:26.807Z,2.43
2023-02-15T06:20:53.360Z,2.00
2023-02-15T06:23:19.965Z,2.63
2023-02-15T06:25:48.154Z,2.30
2023-02-15T06:28:22.367Z,2.77
2023-02-15T06:30:48.988Z,2.83
2023-02-15T06:33:15.659Z,2.73
2023-02-15T06:35:42.267Z,2.30
2023-02-15T06:38:18.740Z,2.93
2023-02-15T06:40:45.340Z,2.33
2023-02-15T06:43:22.294Z,3.53
2023-02-15T06:45:49.038Z,1.80
2023-02-15T06:48:15.723Z,2.20
2023-02-15T06:50:43.064Z,2.60
2023-02-15T06:53:12.693Z,2.70
2023-02-15T06:55:39.242Z,3.70
2023-02-15T06:58:10.287Z,1.97
2023-02-15T07:00:37.054Z,2.47
2023-02-15T07:03:04.083Z,2.70
2023-02-15T07:05:34.725Z,1.93
2023-02-15T07:08:04.608Z,2.97
2023-02-15T07:10:31.595Z,3.40
2023-02-15T07:12:58.400Z,2.90
2023-02-15T07:15:25.652Z,3.57
2023-02-15T07:17:52.362Z,3.67
2023-02-15T07:20:24.213Z,3.00
2023-02-15T07:22:51.441Z,2.87
2023-02-15T07:25:18.902Z,3.40
2023-02-15T07:27:46.038Z,3.60
2023-02-15T07:30:16.386Z,3.57
2023-02-15T07:33:04.554Z,3.67
2023-02-15T07:35:32.213Z,3.50
2023-02-15T07:37:58.758Z,2.87
2023-02-15T07:40:25.867Z,3.23
2023-02-15T07:42:54.503Z,2.97
2023-02-15T07:45:23.130Z,3.17
2023-02-15T07:47:49.883Z,4.30
2023-02-15T07:50:16.650Z,4.00
2023-02-15T07:52:43.217Z,3.90
2023-02-15T07:55:09.971Z,3.80
2023-02-15T07:57:36.657Z,3.97
2023-02-15T08:00:07.497Z,3.50
2023-02-15T08:02:35.163Z,3.83
2023-02-15T08:05:01.916Z,5.10
2023-02-15T08:07:28.452Z,3.97
2023-02-15T08:09:55.019Z,3.17
2023-02-15T08:12:21.709Z,3.27
2023-02-15T08:14:55.785Z,4.33
2023-02-15T08:17:22.367Z,4.47
2023-02-15T08:19:49.009Z,4.27
2023-02-15T08:22:15.781Z,5.10
2023-02-15T08:24:42.626Z,4.77
2023-02-15T08:27:14.256Z,3.77
2023-02-15T08:29:42.315Z,4.57
2023-02-15T08:32:11.708Z,4.30
2023-02-15T08:34:41.569Z,4.77
2023-02-15T08:37:08.333Z,4.73
2023-02-15T08:39:38.209Z,5.60
2023-02-15T08:42:05.016Z,4.73
2023-02-15T08:44:31.978Z,4.93
2023-02-15T08:47:03.864Z,4.83
2023-02-15T08:49:30.709Z,4.87
2023-02-15T08:52:00.874Z,4.27
2023-02-15T08:54:27.538Z,4.20
2023-02-15T08:56:54.234Z,2.60
2023-02-15T08:59:22.824Z,2.57
2023-02-15T09:01:51.314Z,2.70
2023-02-15T09:04:22.107Z,2.43
2023-02-15T09:06:49.909Z,3.17
2023-02-15T09:09:18.267Z,2.40
2023-02-15T09:11:47.880Z,2.33
2023-02-15T09:14:30.650Z,2.73
2023-02-15T09:16:57.367Z,2.47
2023-02-15T09:19:24.779Z,2.27
2023-02-15T09:21:51.669Z,2.23
2023-02-15T09:24:19.020Z,2.80
2023-02-15T09:26:49.702Z,2.17
2023-02-15T09:29:17.667Z,1.70
2023-02-15T09:31:47.628Z,2.37
2023-02-15T09:34:17.339Z,2.30
2023-02-15T09:36:44.278Z,2.00
2023-02-15T09:39:14.970Z,2.27
2023-02-15T09:41:56.196Z,2.53
2023-02-15T09:44:47.271Z,2.00
2023-02-15T09:47:35.035Z,2.00
2023-02-15T09:50:22.477Z,1.70
2023-02-15T09:53:01.022Z,2.00
2023-02-15T09:55:43.048Z,2.50
2023-02-15T09:58:26.747Z,1.80
2023-02-15T10:01:21.620Z,2.30
2023-02-15T10:04:10.205Z,3.20
2023-02-15T10:06:43.628Z,1.80
2023-02-15T10:09:16.402Z,1.57
2023-02-15T10:12:34.209Z,2.00
2023-02-15T10:15:20.223Z,1.60
2023-02-15T10:18:02.188Z,2.07
2023-02-15T10:20:53.974Z,2.10
2023-02-15T10:23:47.537Z,1.70
2023-02-15T10:26:38.563Z,1.83
2023-02-15T10:29:29.996Z,1.93
2023-02-15T10:32:06.630Z,1.60
2023-02-15T10:34:44.490Z,1.90
2023-02-15T10:37:35.604Z,1.73
2023-02-15T10:40:30.033Z,1.80
2023-02-15T10:43:15.165Z,1.27
2023-02-15T10:45:54.489Z,1.50
2023-02-15T10:48:24.481Z,1.60
2023-02-15T10:51:05.745Z,2.00
2023-02-15T10:53:47.642Z,1.50
2023-02-15T10:56:31.295Z,1.63
2023-02-15T10:59:19.698Z,1.83
2023-02-15T11:02:05.220Z,2.00
2023-02-15T11:04:57.937Z,2.00
2023-02-15T11:07:30.280Z,2.07
2023-02-15T11:10:34.240Z,2.10
2023-02-15T11:13:09.765Z,1.53
2023-02-15T11:15:46.206Z,1.80
2023-02-15T11:18:21.348Z,1.70
2023-02-15T11:20:56.783Z,2.67
2023-02-15T11:23:26.076Z,2.00
2023-02-15T11:26:02.186Z,2.27
2023-02-15T11:28:35.092Z,2.57
2023-02-15T11:31:18.644Z,2.53
2023-02-15T11:33:51.330Z,1.57
2023-02-15T11:36:24.994Z,2.20
2023-02-15T11:38:58.285Z,2.50
2023-02-15T11:41:29.759Z,2.10
2023-02-15T11:44:16.457Z,2.50
2023-02-15T11:46:43.454Z,3.00
2023-02-15T11:49:31.928Z,2.50
2023-02-15T11:52:01.598Z,2.30
2023-02-15T11:54:31.801Z,2.13
2023-02-15T11:57:14.751Z,2.33
2023-02-15T11:59:45.485Z,2.53
2023-02-15T12:02:34.262Z,2.03
2023-02-15T12:05:06.779Z,2.37
2023-02-15T12:07:49.401Z,2.60
2023-02-15T12:10:25.775Z,2.00
2023-02-15T12:13:19.672Z,2.30
2023-02-15T12:15:52.359Z,2.20
2023-02-15T12:18:39.995Z,2.63
2023-02-15T12:21:11.409Z,2.87
2023-02-15T12:23:48.098Z,2.40
2023-02-15T12:26:15.383Z,2.37
2023-02-15T12:28:53.213Z,1.90
2023-02-15T12:31:27.856Z,2.10
2023-02-15T12:33:58.089Z,3.10
2023-02-15T12:36:45.601Z,2.33
2023-02-15T12:39:15.003Z,2.03
2023-02-15T12:42:01.839Z,2.33
2023-02-15T12:44:32.088Z,2.80
2023-02-15T12:47:20.001Z,3.20
2023-02-15T12:50:35.364Z,2.97
2023-02-15T12:53:24.135Z,2.77
2023-02-15T12:55:58.225Z,2.67
2023-02-15T12:58:31.319Z,2.25
2023-02-15T13:01:10.515Z,3.13
2023-02-15T13:03:40.504Z,2.23
2023-02-15T13:06:09.649Z,2.80
2023-02-15T13:08:49.060Z,2.50
2023-02-15T13:11:31.373Z,2.37
2023-02-15T13:14:01.879Z,2.17
2023-02-15T13:16:36.286Z,2.77
2023-02-15T13:19:27.158Z,3.10
2023-02-15T13:21:56.681Z,2.20
2023-02-15T13:24:38.685Z,2.70
2023-02-15T13:27:15.612Z,3.23
2023-02-15T13:29:46.654Z,3.17
2023-02-15T13:32:27.461Z,2.37
2023-02-15T13:35:06.122Z,2.87
2023-02-15T13:38:00.442Z,3.20
2023-02-15T13:40:46.692Z,2.93
2023-02-15T13:43:43.709Z,3.50
2023-02-15T13:46:18.744Z,2.50
2023-02-15T13:48:57.880Z,2.93
2023-02-15T13:51:50.664Z,2.83
2023-02-15T13:54:48.439Z,3.37
2023-02-15T13:57:33.875Z,3.00
2023-02-15T14:00:11.843Z,3.07
2023-02-15T14:03:21.115Z,2.80
2023-02-15T14:06:16.984Z,3.23
2023-02-15T14:08:56.083Z,3.10
2023-02-15T14:11:44.539Z,3.23
2023-02-15T14:14:29.489Z,2.90
2023-02-15T14:17:11.871Z,2.40
2023-02-15T14:19:51.006Z,3.43
2023-02-15T14:22:40.742Z,3.73
2023-02-15T14:25:45.688Z,2.87
2023-02-15T14:28:42.937Z,2.97
2023-02-15T14:31:14.319Z,2.73
2023-02-15T14:33:48.404Z,2.80
2023-02-15T14:36:22.166Z,3.00
2023-02-15T14:39:51.667Z,2.37
2023-02-15T14:42:30.302Z,3.10
2023-02-15T14:45:18.423Z,2.60
2023-02-15T14:48:11.797Z,3.43
2023-02-15T14:50:43.323Z,2.80
2023-02-15T14:53:37.427Z,3.03
2023-02-15T14:56:26.275Z,2.77
2023-02-15T14:58:56.546Z,2.27
2023-02-15T15:01:31.608Z,1.83
2023-02-15T15:04:09.093Z,1.87
2023-02-15T15:06:40.621Z,1.60
2023-02-15T15:09:27.916Z,1.50
2023-02-15T15:12:07.896Z,1.63
2023-02-15T15:14:34.489Z,1.80
2023-02-15T15:17:05.987Z,1.83
2023-02-15T15:19:52.014Z,1.43
2023-02-15T15:22:22.873Z,1.40
2023-02-15T15:24:56.469Z,1.87
2023-02-15T15:27:44.896Z,1.60
2023-02-15T15:30:14.299Z,1.73
2023-02-15T15:33:01.206Z,1.97
2023-02-15T15:35:49.545Z,1.40
2023-02-15T15:38:38.304Z,1.60
2023-02-15T15:41:41.228Z,1.83
2023-02-15T15:44:32.570Z,1.80
2023-02-15T15:47:22.609Z,1.70
2023-02-15T15:49:49.511Z,1.80
2023-02-15T15:52:19.215Z,2.13
2023-02-15T15:54:51.409Z,1.90
2023-02-15T15:57:33.005Z,2.07
2023-02-15T16:00:02.727Z,1.90
2023-02-15T16:02:29.446Z,1.80
2023-02-15T16:05:07.183Z,2.20
2023-02-15T16:07:33.874Z,1.80
2023-02-15T16:10:13.876Z,2.30
2023-02-15T16:12:41.069Z,2.27
2023-02-15T16:15:50.741Z,2.17
2023-02-15T16:18:20.047Z,2.10
2023-02-15T16:21:00.198Z,1.80
2023-02-15T16:23:35.964Z,2.80
2023-02-15T16:26:08.367Z,2.20
2023-02-15T16:28:35.264Z,2.10
2023-02-15T16:31:13.445Z,2.23
2023-02-15T16:33:49.851Z,2.40
2023-02-15T16:36:25.643Z,1.77
2023-02-15T16:38:52.243Z,3.53
2023-02-15T16:41:26.808Z,2.10
2023-02-15T16:43:55.259Z,2.30
2023-02-15T16:46:32.260Z,2.37
2023-02-15T16:49:05.452Z,1.93
2023-02-15T16:51:35.645Z,2.10
2023-02-15T16:54:09.014Z,2.07
2023-02-15T16:56:37.463Z,2.10
2023-02-15T16:59:06.917Z,1.60
2023-02-15T17:01:36.493Z,2.17
2023-02-15T17:04:39.002Z,2.37
2023-02-15T17:07:22.665Z,2.07
2023-02-15T17:09:57.282Z,2.30
2023-02-15T17:12:56.085Z,1.90
2023-02-15T17:15:40.996Z,2.40
2023-02-15T17:18:15.661Z,2.10
2023-02-15T17:20:44.577Z,2.13
2023-02-15T17:23:34.576Z,2.03
2023-02-15T17:26:22.344Z,2.30
2023-02-15T17:28:53.694Z,1.43
2023-02-15T17:31:21.640Z,1.80
2023-02-15T17:33:52.991Z,1.97
2023-02-15T17:36:24.893Z,1.57
2023-02-15T17:38:57.442Z,2.20
2023-02-15T17:41:35.221Z,2.27
2023-02-15T17:44:03.963Z,1.20
2023-02-15T17:46:35.812Z,1.70
2023-02-15T17:49:03.007Z,1.40
2023-02-15T17:51:32.288Z,1.10
2023-02-15T17:54:17.472Z,1.63
2023-02-15T17:56:44.044Z,2.17
2023-02-15T17:59:14.976Z,1.33
2023-02-15T18:02:07.208Z,2.40
2023-02-15T18:04:54.747Z,1.70
2023-02-15T18:07:40.183Z,1.70
2023-02-15T18:10:34.673Z,2.13
2023-02-15T18:13:01.687Z,2.47
2023-02-15T18:15:28.600Z,2.07
2023-02-15T18:17:55.550Z,2.20
2023-02-15T18:20:33.131Z,2.60
2023-02-15T18:23:02.186Z,1.97
2023-02-15T18:25:29.065Z,2.20
2023-02-15T18:27:55.769Z,1.67
2023-02-15T18:30:29.263Z,1.53
2023-02-15T18:32:58.676Z,2.13
2023-02-15T18:35:28.675Z,1.57
2023-02-15T18:37:56.357Z,1.77
2023-02-15T18:40:27.336Z,2.27
2023-02-15T18:42:57.096Z,1.83
2023-02-15T18:45:28.570Z,1.37
2023-02-15T18:47:55.440Z,1.70
2023-02-15T18:50:24.763Z,2.40
2023-02-15T18:52:51.682Z,2.97
2023-02-15T18:55:25.622Z,2.10
2023-02-15T18:57:55.132Z,1.97
2023-02-15T19:00:32.509Z,2.00
2023-02-15T19:03:03.406Z,2.17
2023-02-15T19:05:31.855Z,2.43
2023-02-15T19:08:00.736Z,2.07
2023-02-15T19:10:29.608Z,2.47
2023-02-15T19:12:56.773Z,2.23
2023-02-15T19:15:28.449Z,1.77
2023-02-15T19:17:55.498Z,2.47
2023-02-15T19:20:27.944Z,2.67
2023-02-15T19:22:57.004Z,2.40
2023-02-15T19:25:30.205Z,1.57
2023-02-15T19:27:58.432Z,2.17
2023-02-15T19:30:29.593Z,2.33
2023-02-15T19:32:57.483Z,2.67
2023-02-15T19:35:33.084Z,2.33
2023-02-15T19:38:02.206Z,1.77
2023-02-15T19:40:32.075Z,2.97
2023-02-15T19:42:59.036Z,2.73
2023-02-15T19:45:35.519Z,2.13
2023-02-15T19:48:02.514Z,2.50
2023-02-15T19:50:31.761Z,2.20
2023-02-15T19:52:58.373Z,2.80
2023-02-15T19:55:26.445Z,2.83
2023-02-15T19:57:57.279Z,2.50
2023-02-15T20:00:29.257Z,2.20
2023-02-15T20:02:57.973Z,2.03
2023-02-15T20:05:25.973Z,2.63
2023-02-15T20:07:53.571Z,2.77
2023-02-15T20:10:22.990Z,2.70
2023-02-15T20:12:50.342Z,2.70
2023-02-15T20:15:22.893Z,2.50
2023-02-15T20:17:50.835Z,2.77
2023-02-15T20:20:18.779Z,1.80
2023-02-15T20:22:48.115Z,3.30
2023-02-15T20:25:30.134Z,3.47
2023-02-15T20:27:59.313Z,2.13
2023-02-15T20:30:28.468Z,2.20
2023-02-15T20:32:55.780Z,1.73
2023-02-15T20:35:24.779Z,3.30
2023-02-15T20:37:56.624Z,2.10
2023-02-15T20:40:28.817Z,2.20
2023-02-15T20:42:55.617Z,2.70
2023-02-15T20:45:33.489Z,3.03
2023-02-15T20:48:02.063Z,2.67
2023-02-15T20:50:31.451Z,2.17
2023-02-15T20:52:59.884Z,2.43
2023-02-15T20:55:29.524Z,2.23
2023-02-15T20:58:01.426Z,2.77
2023-02-15T21:00:31.174Z,2.07
2023-02-15T21:02:59.735Z,2.77
2023-02-15T21:05:35.259Z,3.07
2023-02-15T21:08:02.361Z,1.80
2023-02-15T21:10:31.750Z,1.73
2023-02-15T21:13:11.985Z,3.57
2023-02-15T21:15:41.862Z,2.40
2023-02-15T21:18:17.004Z,2.63
2023-02-15T21:20:48.590Z,2.43
2023-02-15T21:23:18.160Z,3.33
2023-02-15T21:25:44.867Z,2.83
2023-02-15T21:28:18.864Z,3.10
2023-02-15T21:30:47.697Z,2.93
2023-02-15T21:33:15.160Z,3.00
2023-02-15T21:35:44.244Z,3.43
2023-02-15T21:38:17.239Z,2.80
2023-02-15T21:40:49.645Z,2.33
2023-02-15T21:43:44.442Z,3.73
2023-02-15T21:46:38.097Z,2.57
2023-02-15T21:49:10.872Z,2.50
2023-02-15T21:51:55.735Z,3.17
2023-02-15T21:54:24.735Z,4.20
2023-02-15T21:56:54.048Z,2.50
2023-02-15T21:59:20.725Z,2.93
2023-02-15T22:01:49.511Z,3.03
2023-02-15T22:04:26.769Z,2.80
2023-02-15T22:06:53.522Z,3.43
2023-02-15T22:09:25.268Z,2.67
2023-02-15T22:11:52.367Z,2.40
2023-02-15T22:14:37.460Z,3.07
2023-02-15T22:17:23.676Z,2.13
2023-02-15T22:19:51.038Z,3.03
2023-02-15T22:22:17.915Z,3.47
2023-02-15T22:24:48.273Z,2.83
2023-02-15T22:27:21.882Z,3.47
2023-02-15T22:29:49.965Z,4.13
2023-02-15T22:32:26.652Z,3.23
2023-02-15T22:34:54.724Z,3.00
2023-02-15T22:37:21.427Z,3.07
2023-02-15T22:39:48.146Z,3.40
2023-02-15T22:42:25.289Z,3.03
2023-02-15T22:44:57.131Z,3.10
2023-02-15T22:47:26.400Z,3.57
2023-02-15T22:49:56.997Z,3.50
2023-02-15T22:52:24.303Z,3.37
2023-02-15T22:54:50.848Z,4.70
2023-02-15T22:57:34.852Z,3.50
2023-02-15T23:00:01.566Z,3.47
2023-02-15T23:02:28.353Z,3.10
2023-02-15T23:04:55.050Z,3.53
2023-02-15T23:07:23.243Z,2.00
2023-02-15T23:09:51.164Z,2.17
2023-02-15T23:12:26.077Z,3.03
2023-02-15T23:14:53.930Z,2.33
2023-02-15T23:17:21.219Z,2.43
2023-02-15T23:19:47.797Z,2.70
2023-02-15T23:22:20.900Z,3.40
2023-02-15T23:24:53.564Z,3.23
2023-02-15T23:27:38.740Z,2.37
2023-02-15T23:30:13.712Z,2.70
2023-02-15T23:32:40.841Z,4.37
2023-02-15T23:35:17.034Z,3.33
2023-02-15T23:37:44.102Z,2.73
2023-02-15T23:40:33.960Z,2.80
2023-02-15T23:43:03.169Z,2.90
2023-02-15T23:45:33.032Z,2.73
2023-02-15T23:48:18.297Z,2.53
2023-02-15T23:50:44.853Z,2.70
2023-02-15T23:53:11.465Z,2.47
2023-02-15T23:55:43.194Z,2.90
2023-02-15T23:58:23.900Z,2.03
